createdAt,value
2023-05-04T00:00:27.665Z,4.04
2023-05-04T00:02:55.335Z,3.83
2023-05-04T00:05:24.254Z,4.08
2023-05-04T00:07:51.879Z,3.93
2023-05-04T00:10:19.476Z,4.05
2023-05-04T00:12:47.220Z,4.02
2023-05-04T00:15:14.940Z,3.97
2023-05-04T00:17:42.505Z,3.99
2023-05-04T00:20:10.431Z,4.07
2023-05-04T00:22:39.910Z,4.06
2023-05-04T00:25:08.198Z,3.94
2023-05-04T00:27:36.069Z,4.05
2023-05-04T00:30:03.838Z,4.12
2023-05-04T00:32:31.673Z,4.11
2023-05-04T00:35:00.481Z,3.93
2023-05-04T00:37:28.190Z,3.55
2023-05-04T00:39:57.027Z,3.48
2023-05-04T00:42:24.606Z,3.40
2023-05-04T00:44:52.129Z,3.36
2023-05-04T00:47:21.420Z,3.28
2023-05-04T00:49:49.023Z,3.71
2023-05-04T00:52:16.678Z,4.00
2023-05-04T00:54:44.198Z,4.06
2023-05-04T00:57:13.179Z,3.97
2023-05-04T00:59:41.060Z,3.77
2023-05-04T01:02:08.764Z,3.73
2023-05-04T01:04:36.263Z,3.69
2023-05-04T01:07:05.520Z,3.73
2023-05-04T01:09:36.224Z,3.51
2023-05-04T01:12:05.905Z,3.57
2023-05-04T01:14:34.968Z,3.63
2023-05-04T01:17:04.112Z,3.98
2023-05-04T01:19:31.859Z,3.82
2023-05-04T01:22:00.904Z,4.01
2023-05-04T01:24:28.553Z,4.32
2023-05-04T01:26:57.337Z,3.93
2023-05-04T01:29:26.583Z,3.98
2023-05-04T01:31:55.472Z,4.19
2023-05-04T01:34:22.995Z,3.69
2023-05-04T01:36:50.518Z,3.73
2023-05-04T01:39:19.453Z,3.70
2023-05-04T01:41:46.981Z,3.69
2023-05-04T01:44:16.455Z,3.36
2023-05-04T01:46:44.769Z,3.40
2023-05-04T01:49:12.382Z,3.66
2023-05-04T01:51:39.981Z,3.41
2023-05-04T01:54:07.588Z,3.29
2023-05-04T01:56:36.522Z,3.55
2023-05-04T01:59:04.369Z,3.53
2023-05-04T02:01:32.086Z,3.75
2023-05-04T02:03:59.971Z,3.77
2023-05-04T02:06:27.751Z,3.51
2023-05-04T02:08:55.584Z,3.65
2023-05-04T02:11:23.159Z,3.72
2023-05-04T02:13:54.873Z,3.85
2023-05-04T02:16:22.514Z,3.53
2023-05-04T02:18:50.097Z,3.80
2023-05-04T02:21:18.145Z,3.75
2023-05-04T02:23:45.704Z,3.69
2023-05-04T02:26:13.250Z,3.52
2023-05-04T02:28:40.879Z,3.57
2023-05-04T02:31:11.564Z,3.60
2023-05-04T02:33:39.105Z,3.64
2023-05-04T02:36:07.387Z,3.35
2023-05-04T02:38:34.981Z,3.39
2023-05-04T02:41:02.537Z,3.42
2023-05-04T02:43:30.020Z,3.58
2023-05-04T02:45:57.633Z,3.70
2023-05-04T02:48:27.166Z,3.70
2023-05-04T02:50:54.701Z,3.70
2023-05-04T02:53:22.418Z,3.62
2023-05-04T02:55:50.320Z,3.46
2023-05-04T02:58:17.879Z,3.43
2023-05-04T03:00:45.510Z,3.37
2023-05-04T03:03:13.092Z,3.42
2023-05-04T03:05:41.982Z,3.23
2023-05-04T03:08:11.578Z,3.18
2023-05-04T03:10:39.164Z,3.21
2023-05-04T03:13:06.871Z,3.31
2023-05-04T03:15:35.008Z,3.29
2023-05-04T03:18:02.795Z,3.14
2023-05-04T03:20:30.453Z,3.23
2023-05-04T03:23:02.344Z,3.35
2023-05-04T03:25:31.215Z,3.13
2023-05-04T03:27:59.083Z,3.08
2023-05-04T03:30:27.041Z,3.07
2023-05-04T03:32:58.282Z,3.11
2023-05-04T03:35:26.015Z,3.12
2023-05-04T03:37:56.167Z,3.31
2023-05-04T03:40:25.335Z,3.32
2023-05-04T03:42:54.736Z,3.33
2023-05-04T03:45:23.579Z,3.29
2023-05-04T03:47:52.061Z,3.43
2023-05-04T03:50:21.390Z,3.42
2023-05-04T03:52:49.314Z,3.41
2023-05-04T03:55:19.560Z,3.48
2023-05-04T03:57:52.347Z,3.45
2023-05-04T04:00:20.333Z,3.30
2023-05-04T04:02:56.352Z,3.06
2023-05-04T04:05:24.025Z,2.79
2023-05-04T04:07:53.478Z,2.97
2023-05-04T04:10:21.029Z,3.15
2023-05-04T04:12:48.546Z,3.22
2023-05-04T04:15:17.533Z,3.25
2023-05-04T04:17:45.086Z,3.46
2023-05-04T04:20:13.963Z,3.40
2023-05-04T04:22:41.505Z,3.36
2023-05-04T04:25:10.451Z,3.51
2023-05-04T04:27:38.009Z,3.71
2023-05-04T04:30:06.921Z,3.72
2023-05-04T04:32:36.086Z,3.73
2023-05-04T04:35:04.358Z,3.85
2023-05-04T04:37:31.861Z,3.92
2023-05-04T04:39:59.500Z,4.12
2023-05-04T04:42:27.124Z,4.16
2023-05-04T04:44:54.676Z,4.29
2023-05-04T04:47:22.675Z,4.46
2023-05-04T04:49:51.547Z,4.65
2023-05-04T04:52:19.116Z,4.77
2023-05-04T04:54:46.754Z,4.68
2023-05-04T04:57:14.702Z,4.73
2023-05-04T04:59:42.236Z,4.90
2023-05-04T05:02:11.697Z,5.06
2023-05-04T05:04:39.946Z,5.18
2023-05-04T05:07:10.515Z,5.14
2023-05-04T05:09:38.453Z,5.30
2023-05-04T05:12:07.428Z,5.28
2023-05-04T05:14:35.195Z,5.41
2023-05-04T05:17:04.205Z,5.62
2023-05-04T05:19:34.188Z,5.57
2023-05-04T05:22:01.711Z,5.66
2023-05-04T05:24:30.927Z,5.70
2023-05-04T05:26:58.489Z,5.81
2023-05-04T05:29:26.168Z,5.94
2023-05-04T05:31:53.915Z,5.97
2023-05-04T05:34:21.436Z,6.10
2023-05-04T05:36:49.381Z,6.16
2023-05-04T05:39:17.683Z,6.36
2023-05-04T05:41:46.849Z,6.47
2023-05-04T05:44:14.364Z,6.58
2023-05-04T05:46:41.942Z,6.72
2023-05-04T05:49:09.732Z,6.79
2023-05-04T05:51:37.229Z,6.96
2023-05-04T05:54:04.920Z,7.14
2023-05-04T05:56:32.435Z,7.25
2023-05-04T05:59:01.367Z,7.43
2023-05-04T06:01:28.901Z,7.51
2023-05-04T06:03:56.678Z,7.52
2023-05-04T06:06:24.394Z,7.71
2023-05-04T06:08:51.968Z,7.90
2023-05-04T06:11:19.475Z,8.07
2023-05-04T06:13:47.314Z,8.27
2023-05-04T06:16:16.261Z,8.41
2023-05-04T06:18:43.884Z,8.53
2023-05-04T06:21:11.399Z,8.78
2023-05-04T06:23:38.962Z,9.08
2023-05-04T06:26:07.847Z,8.92
2023-05-04T06:28:35.826Z,8.99
2023-05-04T06:31:03.686Z,9.15
2023-05-04T06:33:32.630Z,9.26
2023-05-04T06:36:00.292Z,9.35
2023-05-04T06:38:27.905Z,9.53
2023-05-04T06:40:55.736Z,9.62
2023-05-04T06:43:23.283Z,9.71
2023-05-04T06:45:50.880Z,9.94
2023-05-04T06:48:18.606Z,9.98
2023-05-04T06:50:47.443Z,10.15
2023-05-04T06:53:15.153Z,10.19
2023-05-04T06:55:42.654Z,10.36
2023-05-04T06:58:10.293Z,10.50
2023-05-04T07:00:37.924Z,10.80
2023-05-04T07:03:05.532Z,10.88
2023-05-04T07:05:35.019Z,10.93
2023-05-04T07:08:03.908Z,11.01
2023-05-04T07:10:31.562Z,11.49
2023-05-04T07:12:59.069Z,11.56
2023-05-04T07:15:26.863Z,11.40
2023-05-04T07:17:54.347Z,11.56
2023-05-04T07:20:23.627Z,11.68
2023-05-04T07:22:55.021Z,11.83
2023-05-04T07:25:23.906Z,11.62
2023-05-04T07:27:51.409Z,11.50
2023-05-04T07:30:18.973Z,12.02
2023-05-04T07:32:46.536Z,12.67
2023-05-04T07:35:14.663Z,12.34
2023-05-04T07:37:42.201Z,12.62
2023-05-04T07:40:10.305Z,12.49
2023-05-04T07:42:39.193Z,12.44
2023-05-04T07:45:08.394Z,12.57
2023-05-04T07:47:35.925Z,13.08
2023-05-04T07:50:04.320Z,13.40
2023-05-04T07:52:32.068Z,13.54
2023-05-04T07:54:59.756Z,14.15
2023-05-04T07:57:27.401Z,14.51
2023-05-04T07:59:56.469Z,13.79
2023-05-04T08:02:24.110Z,13.64
2023-05-04T08:04:51.625Z,13.66
2023-05-04T08:07:20.522Z,14.33
2023-05-04T08:09:48.000Z,14.39
2023-05-04T08:12:15.519Z,14.22
2023-05-04T08:14:43.295Z,14.33
2023-05-04T08:17:12.079Z,14.57
2023-05-04T08:19:39.567Z,14.11
2023-05-04T08:22:10.335Z,14.07
2023-05-04T08:24:37.873Z,14.40
2023-05-04T08:27:08.661Z,14.51
2023-05-04T08:29:37.437Z,14.16
2023-05-04T08:32:05.840Z,14.59
2023-05-04T08:34:34.858Z,14.52
2023-05-04T08:37:02.613Z,14.62
2023-05-04T08:39:30.537Z,14.58
2023-05-04T08:41:58.035Z,14.77
2023-05-04T08:44:25.702Z,14.59
2023-05-04T08:46:56.343Z,14.82
2023-05-04T08:49:24.184Z,15.61
2023-05-04T08:51:53.016Z,15.31
2023-05-04T08:54:20.973Z,15.36
2023-05-04T08:56:48.626Z,14.91
2023-05-04T08:59:18.933Z,15.42
2023-05-04T09:01:47.252Z,15.02
2023-05-04T09:04:14.820Z,14.46
2023-05-04T09:06:42.276Z,15.20
2023-05-04T09:09:11.078Z,15.17
2023-05-04T09:11:39.246Z,15.05
2023-05-04T09:14:06.979Z,15.38
2023-05-04T09:16:34.903Z,14.92
2023-05-04T09:19:02.368Z,15.60
2023-05-04T09:21:29.975Z,15.78
2023-05-04T09:23:57.664Z,15.61
2023-05-04T09:26:30.028Z,15.68
2023-05-04T09:28:57.624Z,15.76
2023-05-04T09:31:25.288Z,15.72
2023-05-04T09:33:53.710Z,15.93
2023-05-04T09:36:23.075Z,15.80
2023-05-04T09:38:50.577Z,15.89
2023-05-04T09:41:18.362Z,16.47
2023-05-04T09:43:47.225Z,16.59
2023-05-04T09:46:18.564Z,16.51
2023-05-04T09:48:54.234Z,16.11
2023-05-04T09:52:08.140Z,16.33
2023-05-04T09:54:36.356Z,16.06
2023-05-04T09:57:06.831Z,16.45
2023-05-04T09:59:35.665Z,16.28
2023-05-04T10:02:18.164Z,16.23
2023-05-04T10:04:49.297Z,16.58
2023-05-04T10:07:17.259Z,16.45
2023-05-04T10:09:45.553Z,16.20
2023-05-04T10:12:17.335Z,16.54
2023-05-04T10:14:48.038Z,16.84
2023-05-04T10:17:19.825Z,17.03
2023-05-04T10:19:51.638Z,16.74
2023-05-04T10:22:22.690Z,16.76
2023-05-04T10:25:05.289Z,16.90
2023-05-04T10:27:39.597Z,16.94
2023-05-04T10:30:09.330Z,16.99
2023-05-04T10:32:39.987Z,16.78
2023-05-04T10:35:08.221Z,17.42
2023-05-04T10:37:37.994Z,16.80
2023-05-04T10:40:08.119Z,16.93
2023-05-04T10:42:41.826Z,16.94
2023-05-04T10:45:11.259Z,16.74
2023-05-04T10:47:40.730Z,17.19
2023-05-04T10:50:14.235Z,17.26
2023-05-04T10:52:47.953Z,16.73
2023-05-04T10:55:15.604Z,16.91
2023-05-04T10:57:50.572Z,17.21
2023-05-04T11:00:19.689Z,17.91
2023-05-04T11:02:47.686Z,18.09
2023-05-04T11:05:18.283Z,17.93
2023-05-04T11:07:46.035Z,17.30
2023-05-04T11:10:27.209Z,17.76
2023-05-04T11:13:02.751Z,17.51
2023-05-04T11:15:33.926Z,17.42
2023-05-04T11:18:02.434Z,18.32
2023-05-04T11:20:29.923Z,18.01
2023-05-04T11:22:57.478Z,18.36
2023-05-04T11:25:28.111Z,17.89
2023-05-04T11:27:55.720Z,18.44
2023-05-04T11:30:30.717Z,17.72
2023-05-04T11:33:00.441Z,18.47
2023-05-04T11:35:28.045Z,18.66
2023-05-04T11:37:55.793Z,18.76
2023-05-04T11:40:23.751Z,18.92
2023-05-04T11:42:51.297Z,19.19
2023-05-04T11:45:19.156Z,18.17
2023-05-04T11:47:47.007Z,18.75
2023-05-04T11:50:19.520Z,18.21
2023-05-04T11:52:47.106Z,18.54
2023-05-04T11:55:14.907Z,18.61
2023-05-04T11:57:42.385Z,18.64
2023-05-04T12:00:10.430Z,19.14
2023-05-04T12:02:38.004Z,18.71
2023-05-04T12:05:06.244Z,18.60
2023-05-04T12:07:38.549Z,18.41
2023-05-04T12:10:06.613Z,18.71
2023-05-04T12:12:37.644Z,18.93
2023-05-04T12:15:05.844Z,19.19
2023-05-04T12:17:42.693Z,18.92
2023-05-04T12:20:10.480Z,18.70
2023-05-04T12:22:39.513Z,18.66
2023-05-04T12:25:09.332Z,19.20
2023-05-04T12:27:37.033Z,18.84
2023-05-04T12:30:04.810Z,19.01
2023-05-04T12:32:32.317Z,19.04
2023-05-04T12:34:59.848Z,18.80
2023-05-04T12:37:27.343Z,18.96
2023-05-04T12:39:56.178Z,19.02
2023-05-04T12:42:24.202Z,18.70
2023-05-04T12:44:51.700Z,19.15
2023-05-04T12:47:20.733Z,19.22
2023-05-04T12:49:48.247Z,19.32
2023-05-04T12:52:15.892Z,19.18
2023-05-04T12:54:43.420Z,19.33
2023-05-04T12:57:12.519Z,19.18
2023-05-04T12:59:40.057Z,18.86
2023-05-04T13:02:07.773Z,19.20
2023-05-04T13:04:35.298Z,19.51
2023-05-04T13:07:03.232Z,19.74
2023-05-04T13:09:30.739Z,19.54
2023-05-04T13:11:58.211Z,19.61
2023-05-04T13:14:27.071Z,19.83
2023-05-04T13:16:54.953Z,19.32
2023-05-04T13:19:22.600Z,19.51
2023-05-04T13:21:50.082Z,19.39
2023-05-04T13:24:17.596Z,19.70
2023-05-04T13:26:45.951Z,19.85
2023-05-04T13:29:13.495Z,19.80
2023-05-04T13:31:44.914Z,19.63
2023-05-04T13:34:12.711Z,19.87
2023-05-04T13:36:40.186Z,19.53
2023-05-04T13:39:07.717Z,19.61
2023-05-04T13:41:35.185Z,19.60
2023-05-04T13:44:02.688Z,19.71
2023-05-04T13:46:30.212Z,19.76
2023-05-04T13:48:59.039Z,19.64
2023-05-04T13:51:26.837Z,19.37
2023-05-04T13:53:54.338Z,19.58
2023-05-04T13:56:21.847Z,19.24
2023-05-04T13:58:49.359Z,19.55
2023-05-04T14:01:16.987Z,19.58
2023-05-04T14:03:44.610Z,19.21
2023-05-04T14:06:13.440Z,19.29
2023-05-04T14:08:40.985Z,19.73
2023-05-04T14:11:08.454Z,19.41
2023-05-04T14:13:35.987Z,19.57
2023-05-04T14:16:03.610Z,19.54
2023-05-04T14:18:32.299Z,19.74
2023-05-04T14:20:59.934Z,19.56
2023-05-04T14:23:28.779Z,19.54
2023-05-04T14:25:57.086Z,19.83
2023-05-04T14:28:24.810Z,19.37
2023-05-04T14:30:52.292Z,19.93
2023-05-04T14:33:19.808Z,19.58
2023-05-04T14:35:48.302Z,19.39
2023-05-04T14:38:15.998Z,19.35
2023-05-04T14:40:45.511Z,19.67
2023-05-04T14:43:14.135Z,19.46
2023-05-04T14:45:41.755Z,19.69
2023-05-04T14:48:09.327Z,19.57
2023-05-04T14:50:36.834Z,19.20
2023-05-04T14:53:04.428Z,19.40
2023-05-04T14:55:33.509Z,19.53
2023-05-04T14:58:02.406Z,19.59
2023-05-04T15:00:29.928Z,19.36
2023-05-04T15:02:57.488Z,19.43
2023-05-04T15:05:25.046Z,19.58
2023-05-04T15:07:52.574Z,19.16
2023-05-04T15:10:20.100Z,19.31
2023-05-04T15:12:47.669Z,19.30
2023-05-04T15:15:16.600Z,19.45
2023-05-04T15:17:44.116Z,19.26
2023-05-04T15:20:12.689Z,19.48
2023-05-04T15:22:40.191Z,19.40
2023-05-04T15:25:07.995Z,18.87
2023-05-04T15:27:35.478Z,19.25
2023-05-04T15:30:03.730Z,19.18
2023-05-04T15:32:32.651Z,19.30
2023-05-04T15:35:06.570Z,19.13
2023-05-04T15:37:34.171Z,19.12
2023-05-04T15:40:04.110Z,19.17
2023-05-04T15:42:31.986Z,19.03
2023-05-04T15:44:59.504Z,18.87
2023-05-04T15:47:27.097Z,18.98
2023-05-04T15:49:55.982Z,19.11
2023-05-04T15:52:24.082Z,19.20
2023-05-04T15:54:51.638Z,18.97
2023-05-04T15:57:19.135Z,18.81
2023-05-04T15:59:47.697Z,18.45
2023-05-04T16:02:15.319Z,18.55
2023-05-04T16:04:42.860Z,19.05
2023-05-04T16:07:11.763Z,18.45
2023-05-04T16:09:39.373Z,18.62
2023-05-04T16:12:07.189Z,18.95
2023-05-04T16:14:38.071Z,19.01
2023-05-04T16:17:05.713Z,18.63
2023-05-04T16:19:33.246Z,18.95
2023-05-04T16:22:01.286Z,18.70
2023-05-04T16:24:34.014Z,18.75
2023-05-04T16:27:01.905Z,18.78
2023-05-04T16:29:29.396Z,18.55
2023-05-04T16:31:57.025Z,18.55
2023-05-04T16:34:24.549Z,18.42
2023-05-04T16:36:52.181Z,18.04
2023-05-04T16:39:20.035Z,18.02
2023-05-04T16:41:50.347Z,18.07
2023-05-04T16:44:18.110Z,18.08
2023-05-04T16:46:45.688Z,18.05
2023-05-04T16:49:14.643Z,17.85
2023-05-04T16:51:43.384Z,17.77
2023-05-04T16:54:13.376Z,17.70
2023-05-04T16:56:40.907Z,17.37
2023-05-04T17:01:56.478Z,16.92
2023-05-04T17:04:25.301Z,16.75
2023-05-04T17:06:52.794Z,16.79
2023-05-04T17:09:20.345Z,16.62
2023-05-04T17:11:47.869Z,16.35
2023-05-04T17:14:16.933Z,16.25
2023-05-04T17:16:44.502Z,16.17
2023-05-04T17:19:11.981Z,16.03
2023-05-04T17:21:40.407Z,16.15
2023-05-04T17:24:07.934Z,16.11
2023-05-04T17:26:35.371Z,15.83
2023-05-04T17:29:02.884Z,15.67
2023-05-04T17:31:31.845Z,15.89
2023-05-04T17:34:02.363Z,16.19
2023-05-04T17:36:29.922Z,16.06
2023-05-04T17:38:57.604Z,15.75
2023-05-04T17:41:25.837Z,15.86
2023-05-04T17:43:54.107Z,15.90
2023-05-04T17:46:21.703Z,15.86
2023-05-04T17:48:52.080Z,15.51
2023-05-04T17:51:22.807Z,15.34
2023-05-04T17:53:50.416Z,15.45
2023-05-04T17:56:19.739Z,15.42
2023-05-04T17:58:47.273Z,15.30
2023-05-04T18:01:16.555Z,15.16
2023-05-04T18:03:44.353Z,15.06
2023-05-04T18:06:13.276Z,15.33
2023-05-04T18:08:40.786Z,15.19
2023-05-04T18:11:08.337Z,15.38
2023-05-04T18:13:35.982Z,15.40
2023-05-04T18:16:03.958Z,14.95
2023-05-04T18:18:31.880Z,14.99
2023-05-04T18:21:00.714Z,15.33
2023-05-04T18:23:30.108Z,15.22
2023-05-04T18:25:57.584Z,15.09
2023-05-04T18:28:26.077Z,14.05
2023-05-04T18:30:53.852Z,13.91
2023-05-04T18:33:21.900Z,14.10
2023-05-04T18:35:49.898Z,14.23
2023-05-04T18:38:18.745Z,14.39
2023-05-04T18:40:51.632Z,14.08
2023-05-04T18:43:19.286Z,14.10
2023-05-04T18:45:47.293Z,14.05
2023-05-04T18:48:15.296Z,14.09
2023-05-04T18:50:49.424Z,13.64
2023-05-04T18:53:17.173Z,13.64
2023-05-04T18:55:44.750Z,13.09
2023-05-04T18:58:13.691Z,12.38
2023-05-04T19:00:42.379Z,11.94
2023-05-04T19:03:14.085Z,12.20
2023-05-04T19:05:42.773Z,12.34
2023-05-04T19:08:10.730Z,12.17
2023-05-04T19:10:38.594Z,11.56
2023-05-04T19:13:06.484Z,11.59
2023-05-04T19:15:35.419Z,11.78
2023-05-04T19:18:03.054Z,11.84
2023-05-04T19:20:30.864Z,11.60
2023-05-04T19:23:00.465Z,11.42
2023-05-04T19:25:34.856Z,11.34
2023-05-04T19:28:07.860Z,11.11
2023-05-04T19:30:37.131Z,11.12
2023-05-04T19:33:04.850Z,11.01
2023-05-04T19:35:32.419Z,11.00
2023-05-04T19:38:01.398Z,10.93
2023-05-04T19:40:29.486Z,10.92
2023-05-04T19:42:57.084Z,10.97
2023-05-04T19:45:24.706Z,10.90
2023-05-04T19:47:56.877Z,10.54
2023-05-04T19:50:24.681Z,10.73
2023-05-04T19:52:56.965Z,11.00
2023-05-04T19:55:24.663Z,11.13
2023-05-04T19:57:53.074Z,10.59
2023-05-04T20:00:22.126Z,10.77
2023-05-04T20:02:49.968Z,10.58
2023-05-04T20:05:21.279Z,10.45
2023-05-04T20:07:48.802Z,10.69
2023-05-04T20:10:16.649Z,10.70
2023-05-04T20:12:44.547Z,10.56
2023-05-04T20:15:13.858Z,10.53
2023-05-04T20:17:41.584Z,10.34
2023-05-04T20:20:09.702Z,10.43
2023-05-04T20:22:39.255Z,10.33
2023-05-04T20:25:06.878Z,10.13
2023-05-04T20:27:34.476Z,10.15
2023-05-04T20:30:01.965Z,10.01
2023-05-04T20:32:31.169Z,10.07
2023-05-04T20:34:58.724Z,10.06
2023-05-04T20:37:29.133Z,9.77
2023-05-04T20:40:00.276Z,10.01
2023-05-04T20:42:29.439Z,9.80
2023-05-04T20:44:57.022Z,9.85
2023-05-04T20:47:24.544Z,9.71
2023-05-04T20:49:52.553Z,9.64
2023-05-04T20:52:20.199Z,9.43
2023-05-04T20:54:47.766Z,9.37
2023-05-04T20:57:17.001Z,9.42
2023-05-04T20:59:47.077Z,9.35
2023-05-04T21:02:14.726Z,9.27
2023-05-04T21:04:43.412Z,9.40
2023-05-04T21:07:11.283Z,9.44
2023-05-04T21:09:38.846Z,9.74
2023-05-04T21:12:06.878Z,10.06
2023-05-04T21:14:35.910Z,9.83
2023-05-04T21:17:07.074Z,10.09
2023-05-04T21:19:34.744Z,10.25
2023-05-04T21:22:16.586Z,10.06
2023-05-04T21:24:45.958Z,10.40
2023-05-04T21:27:20.956Z,10.80
2023-05-04T21:30:16.718Z,10.81
2023-05-04T21:33:08.263Z,10.72
2023-05-04T21:36:01.196Z,10.90
2023-05-04T21:38:29.322Z,11.07
2023-05-04T21:41:02.775Z,10.89
2023-05-04T21:43:30.733Z,10.52
2023-05-04T21:45:59.529Z,10.05
2023-05-04T21:48:27.069Z,9.97
2023-05-04T21:50:54.554Z,10.09
2023-05-04T21:53:22.152Z,10.04
2023-05-04T21:55:49.682Z,9.53
2023-05-04T21:58:17.620Z,9.39
2023-05-04T22:00:45.342Z,9.67
2023-05-04T22:03:14.276Z,9.74
2023-05-04T22:05:41.791Z,10.00
2023-05-04T22:08:12.294Z,9.58
2023-05-04T22:10:41.216Z,9.50
2023-05-04T22:13:08.895Z,9.62
2023-05-04T22:15:48.737Z,9.57
2023-05-04T22:18:18.266Z,9.48
2023-05-04T22:20:46.050Z,9.17
2023-05-04T22:23:13.612Z,9.46
2023-05-04T22:25:41.195Z,9.11
2023-05-04T22:28:08.858Z,9.04
2023-05-04T22:30:36.485Z,9.05
2023-05-04T22:33:04.289Z,9.11
2023-05-04T22:35:36.215Z,9.09
2023-05-04T22:38:05.016Z,9.46
2023-05-04T22:40:32.671Z,9.36
2023-05-04T22:43:00.562Z,9.33
2023-05-04T22:45:28.206Z,9.72
2023-05-04T22:47:55.913Z,9.55
2023-05-04T22:50:23.567Z,9.65
2023-05-04T22:52:52.464Z,9.88
2023-05-04T22:55:20.241Z,9.83
2023-05-04T22:57:47.788Z,9.86
2023-05-04T23:00:16.221Z,9.94
2023-05-04T23:02:43.857Z,10.27
2023-05-04T23:05:11.568Z,10.39
2023-05-04T23:07:39.613Z,10.56
2023-05-04T23:10:09.468Z,10.74
2023-05-04T23:12:37.140Z,10.65
2023-05-04T23:15:05.174Z,10.49
2023-05-04T23:17:34.156Z,10.50
2023-05-04T23:20:01.894Z,10.25
2023-05-04T23:22:31.953Z,9.96
2023-05-04T23:24:59.445Z,10.25
2023-05-04T23:27:28.429Z,10.17
2023-05-04T23:29:55.939Z,10.37
2023-05-04T23:32:23.507Z,10.45
2023-05-04T23:34:51.070Z,10.31
2023-05-04T23:37:18.642Z,10.29
2023-05-04T23:39:46.324Z,10.26
2023-05-04T23:42:13.882Z,10.40
2023-05-04T23:44:42.748Z,10.56
2023-05-04T23:47:10.309Z,10.45
2023-05-04T23:49:37.833Z,10.39
2023-05-04T23:52:05.556Z,10.61
2023-05-04T23:54:33.587Z,10.61
2023-05-04T23:57:01.177Z,10.46
2023-05-04T23:59:28.704Z,10.29
